PPZZZ OPIS-ZULS
Flight info
| Callsign | PPZZZ |
|---|---|
| Flight time | 2h 46m |
| Altitude | 37000 |
| Route | INDEK L509 SULOM M890 LKN G598 SMR G336 KTM G348 KIMTI B345 NONIM/K0906S1130 B345 IKUBI IKU10A |
| Aircraft | MD11/H-SDE1E2E3FGHIJ2J3J4J5M1RWXY/LB1D1 |
Departure
| Time | 2026-04-25 21:00 |
|---|---|
| Airport | Islamabad International Airport (OPIS) |
Arrival
| Time | 2026-04-25 23:47 |
|---|---|
| Airport | Lhasa Gonggar International Airport (ZULS) |
| Time | Latitude | Longitude | Altitude | Speed | Heading |
|---|---|---|---|---|---|
| 2026-04-25 20:05 | 33.55387 | 72.83715 | 1777 ft | 0 kts | 10° |
| 2026-04-25 20:49 | 33.55374 | 72.83712 | 1777 ft | 4 kts | 10° |
| 2026-04-25 20:49 | 33.55348 | 72.83706 | 1777 ft | 4 kts | 14° |
| 2026-04-25 20:50 | 33.55326 | 72.83699 | 1777 ft | 4 kts | 341° |
| 2026-04-25 20:50 | 33.55306 | 72.83710 | 1776 ft | 4 kts | 314° |
| 2026-04-25 20:50 | 33.55296 | 72.83732 | 1777 ft | 4 kts | 274° |
| 2026-04-25 20:50 | 33.55294 | 72.83754 | 1778 ft | 1 kts | 280° |
| 2026-04-25 20:51 | 33.55293 | 72.83758 | 1777 ft | 0 kts | 280° |
| 2026-04-25 20:54 | 33.55296 | 72.83743 | 1780 ft | 5 kts | 280° |
| 2026-04-25 20:54 | 33.55305 | 72.83676 | 1779 ft | 9 kts | 277° |
| 2026-04-25 20:54 | 33.55312 | 72.83606 | 1777 ft | 8 kts | 271° |
| 2026-04-25 20:54 | 33.55280 | 72.83552 | 1779 ft | 10 kts | 212° |
| 2026-04-25 20:55 | 33.55202 | 72.83525 | 1777 ft | 11 kts | 190° |
| 2026-04-25 20:55 | 33.55126 | 72.83509 | 1778 ft | 14 kts | 190° |
| 2026-04-25 20:55 | 33.55048 | 72.83561 | 1777 ft | 15 kts | 109° |
| 2026-04-25 20:55 | 33.55024 | 72.83708 | 1777 ft | 21 kts | 101° |
| 2026-04-25 20:56 | 33.54993 | 72.83897 | 1778 ft | 22 kts | 101° |
| 2026-04-25 20:56 | 33.54985 | 72.83954 | 1777 ft | 3 kts | 99° |
| 2026-04-25 20:56 | 33.54977 | 72.84006 | 1777 ft | 10 kts | 99° |
| 2026-04-25 20:56 | 33.54962 | 72.84116 | 1776 ft | 17 kts | 99° |
| 2026-04-25 20:57 | 33.54938 | 72.84268 | 1776 ft | 18 kts | 102° |
| 2026-04-25 20:57 | 33.54913 | 72.84421 | 1778 ft | 19 kts | 100° |
| 2026-04-25 20:57 | 33.54876 | 72.84531 | 1779 ft | 11 kts | 147° |
| 2026-04-25 20:57 | 33.54823 | 72.84538 | 1776 ft | 0 kts | 185° |
| 2026-04-25 20:58 | 33.54816 | 72.84537 | 1776 ft | 5 kts | 185° |
| 2026-04-25 20:59 | 33.54742 | 72.84518 | 1772 ft | 13 kts | 204° |
| 2026-04-25 20:59 | 33.54712 | 72.84457 | 1774 ft | 6 kts | 268° |
| 2026-04-25 20:59 | 33.54716 | 72.84406 | 1772 ft | 10 kts | 279° |
| 2026-04-25 20:59 | 33.54779 | 72.84004 | 1772 ft | 93 kts | 280° |
| 2026-04-25 21:00 | 33.54945 | 72.82919 | 1768 ft | 168 kts | 280° |
| 2026-04-25 21:00 | 33.55019 | 72.82445 | 1773 ft | 187 kts | 280° |
| 2026-04-25 21:00 | 33.55685 | 72.78225 | 3890 ft | 192 kts | 284° |
| 2026-04-25 21:01 | 33.55934 | 72.76618 | 4735 ft | 195 kts | 282° |
| 2026-04-25 21:01 | 33.56175 | 72.74973 | 5158 ft | 218 kts | 278° |
| 2026-04-25 21:01 | 33.56083 | 72.73060 | 5288 ft | 242 kts | 255° |
| 2026-04-25 21:01 | 33.55188 | 72.71255 | 5436 ft | 268 kts | 225° |
| 2026-04-25 21:02 | 33.53663 | 72.69870 | 5811 ft | 280 kts | 214° |
| 2026-04-25 21:02 | 33.52020 | 72.68646 | 6173 ft | 277 kts | 212° |
| 2026-04-25 21:02 | 33.50363 | 72.67457 | 6515 ft | 277 kts | 212° |
| 2026-04-25 21:02 | 33.48630 | 72.66440 | 6839 ft | 280 kts | 201° |
| 2026-04-25 21:03 | 33.46757 | 72.65789 | 6957 ft | 281 kts | 196° |
| 2026-04-25 21:03 | 33.44851 | 72.65254 | 6977 ft | 281 kts | 195° |
| 2026-04-25 21:03 | 33.42922 | 72.64849 | 6977 ft | 283 kts | 186° |
| 2026-04-25 21:03 | 33.40972 | 72.65116 | 6971 ft | 286 kts | 162° |
| 2026-04-25 21:04 | 33.39285 | 72.66383 | 6975 ft | 290 kts | 134° |
| 2026-04-25 21:04 | 33.38268 | 72.68456 | 6983 ft | 293 kts | 109° |
| 2026-04-25 21:04 | 33.37783 | 72.70830 | 6983 ft | 295 kts | 101° |
| 2026-04-25 21:04 | 33.37439 | 72.73248 | 6981 ft | 295 kts | 99° |
| 2026-04-25 21:05 | 33.37112 | 72.75670 | 6983 ft | 295 kts | 99° |
| 2026-04-25 21:05 | 33.36776 | 72.78095 | 6980 ft | 295 kts | 100° |
| 2026-04-25 21:05 | 33.36430 | 72.80493 | 6981 ft | 296 kts | 100° |
| 2026-04-25 21:05 | 33.36022 | 72.82930 | 6976 ft | 295 kts | 107° |
| 2026-04-25 21:06 | 33.35129 | 72.85078 | 7286 ft | 290 kts | 133° |
| 2026-04-25 21:06 | 33.33552 | 72.86586 | 8089 ft | 288 kts | 159° |
| 2026-04-25 21:06 | 33.31649 | 72.87169 | 8744 ft | 291 kts | 176° |
| 2026-04-25 21:06 | 33.30967 | 72.87257 | 8863 ft | 293 kts | 179° |
| 2026-04-25 21:07 | 33.27619 | 72.87440 | 9484 ft | 289 kts | 182° |
| 2026-04-25 21:07 | 33.25607 | 72.87527 | 9826 ft | 291 kts | 182° |
| 2026-04-25 21:07 | 33.23584 | 72.87874 | 9944 ft | 297 kts | 170° |
| 2026-04-25 21:07 | 33.21655 | 72.88820 | 9964 ft | 304 kts | 154° |
| 2026-04-25 21:08 | 33.19998 | 72.90425 | 9969 ft | 312 kts | 136° |
| 2026-04-25 21:08 | 33.18741 | 72.92562 | 9972 ft | 317 kts | 123° |
| 2026-04-25 21:08 | 33.17667 | 72.94991 | 9983 ft | 347 kts | 120° |
| 2026-04-25 21:08 | 33.16552 | 72.97684 | 9978 ft | 377 kts | 119° |
| 2026-04-25 21:09 | 33.14176 | 73.03422 | 9974 ft | 387 kts | 119° |
| 2026-04-25 21:09 | 33.12967 | 73.06291 | 9973 ft | 387 kts | 119° |
| 2026-04-25 21:09 | 33.11746 | 73.09154 | 9966 ft | 387 kts | 120° |
| 2026-04-25 21:10 | 33.10517 | 73.12015 | 9967 ft | 387 kts | 120° |
| 2026-04-25 21:10 | 33.09270 | 73.14865 | 9971 ft | 386 kts | 122° |
| 2026-04-25 21:10 | 33.07837 | 73.17558 | 9972 ft | 383 kts | 130° |
| 2026-04-25 21:10 | 33.06031 | 73.19858 | 9949 ft | 378 kts | 144° |
| 2026-04-25 21:11 | 33.03859 | 73.21578 | 9968 ft | 374 kts | 158° |
| 2026-04-25 21:11 | 33.01438 | 73.22642 | 9967 ft | 367 kts | 171° |
| 2026-04-25 21:11 | 32.99784 | 73.23043 | 9969 ft | 366 kts | 175° |
| 2026-04-25 21:11 | 32.96412 | 73.23578 | 9951 ft | 365 kts | 178° |
| 2026-04-25 21:12 | 32.94741 | 73.23805 | 9945 ft | 365 kts | 178° |
| 2026-04-25 21:12 | 32.91401 | 73.24277 | 10286 ft | 364 kts | 178° |
| 2026-04-25 21:12 | 32.89699 | 73.24533 | 10907 ft | 365 kts | 177° |
| 2026-04-25 21:12 | 32.88029 | 73.24791 | 11453 ft | 367 kts | 177° |
| 2026-04-25 21:13 | 32.84615 | 73.25336 | 12483 ft | 372 kts | 177° |
| 2026-04-25 21:13 | 32.81191 | 73.25898 | 13484 ft | 378 kts | 177° |
| 2026-04-25 21:13 | 32.79459 | 73.26187 | 13950 ft | 380 kts | 176° |
| 2026-04-25 21:13 | 32.76838 | 73.26825 | 14573 ft | 389 kts | 167° |
| 2026-04-25 21:14 | 32.74317 | 73.28101 | 15209 ft | 400 kts | 154° |
| 2026-04-25 21:14 | 32.71989 | 73.29977 | 15838 ft | 408 kts | 146° |
| 2026-04-25 21:14 | 32.69757 | 73.32111 | 16458 ft | 414 kts | 143° |
| 2026-04-25 21:14 | 32.67540 | 73.34325 | 17102 ft | 419 kts | 143° |
| 2026-04-25 21:15 | 32.65297 | 73.36556 | 17740 ft | 422 kts | 143° |
| 2026-04-25 21:15 | 32.63015 | 73.38783 | 18333 ft | 426 kts | 144° |
| 2026-04-25 21:15 | 32.60703 | 73.41003 | 18876 ft | 430 kts | 144° |
| 2026-04-25 21:15 | 32.58352 | 73.43232 | 19388 ft | 434 kts | 144° |
| 2026-04-25 21:16 | 32.55974 | 73.45471 | 19905 ft | 439 kts | 145° |
| 2026-04-25 21:16 | 32.53569 | 73.47727 | 20437 ft | 442 kts | 145° |
| 2026-04-25 21:16 | 32.51144 | 73.49997 | 20961 ft | 446 kts | 145° |
| 2026-04-25 21:16 | 32.48696 | 73.52288 | 21485 ft | 450 kts | 146° |
| 2026-04-25 21:17 | 32.46256 | 73.54570 | 21988 ft | 454 kts | 146° |
| 2026-04-25 21:17 | 32.43772 | 73.56891 | 22508 ft | 457 kts | 146° |
| 2026-04-25 21:17 | 32.41265 | 73.59233 | 23016 ft | 461 kts | 146° |
| 2026-04-25 21:17 | 32.38735 | 73.61596 | 23500 ft | 465 kts | 146° |
| 2026-04-25 21:18 | 32.36184 | 73.63976 | 23908 ft | 469 kts | 146° |
| 2026-04-25 21:18 | 32.33609 | 73.66376 | 24270 ft | 474 kts | 146° |
| 2026-04-25 21:18 | 32.31006 | 73.68800 | 24620 ft | 479 kts | 146° |
| 2026-04-25 21:18 | 32.28381 | 73.71244 | 25022 ft | 482 kts | 146° |
| 2026-04-25 21:19 | 32.25729 | 73.73712 | 25412 ft | 486 kts | 146° |
| 2026-04-25 21:19 | 32.23063 | 73.76190 | 25815 ft | 490 kts | 146° |
| 2026-04-25 21:19 | 32.20379 | 73.78684 | 26208 ft | 493 kts | 146° |
| 2026-04-25 21:19 | 32.17675 | 73.81194 | 26585 ft | 496 kts | 146° |
| 2026-04-25 21:20 | 32.14947 | 73.83724 | 26955 ft | 500 kts | 145° |
| 2026-04-25 21:20 | 32.13130 | 73.85408 | 27209 ft | 502 kts | 145° |
| 2026-04-25 21:20 | 32.09432 | 73.88833 | 27690 ft | 506 kts | 145° |
| 2026-04-25 21:20 | 32.06650 | 73.91397 | 28067 ft | 509 kts | 145° |
| 2026-04-25 21:21 | 32.03848 | 73.93974 | 28430 ft | 513 kts | 145° |
| 2026-04-25 21:21 | 32.01023 | 73.96573 | 28784 ft | 516 kts | 145° |
| 2026-04-25 21:21 | 31.98226 | 73.99149 | 29137 ft | 519 kts | 145° |
| 2026-04-25 21:21 | 31.95371 | 74.01778 | 29478 ft | 522 kts | 145° |
| 2026-04-25 21:22 | 31.92500 | 74.04423 | 29837 ft | 525 kts | 145° |
| 2026-04-25 21:22 | 31.89615 | 74.07080 | 30153 ft | 528 kts | 145° |
| 2026-04-25 21:22 | 31.86711 | 74.09753 | 30473 ft | 530 kts | 144° |
| 2026-04-25 21:22 | 31.83800 | 74.12430 | 30784 ft | 532 kts | 144° |
| 2026-04-25 21:23 | 31.80878 | 74.15114 | 31120 ft | 533 kts | 145° |
| 2026-04-25 21:23 | 31.77954 | 74.17798 | 31478 ft | 532 kts | 145° |
| 2026-04-25 21:23 | 31.75036 | 74.20475 | 31838 ft | 531 kts | 145° |
| 2026-04-25 21:23 | 31.72120 | 74.23146 | 32189 ft | 530 kts | 145° |
| 2026-04-25 21:24 | 31.69214 | 74.25807 | 32539 ft | 530 kts | 145° |
| 2026-04-25 21:24 | 31.66304 | 74.28468 | 32882 ft | 529 kts | 145° |
| 2026-04-25 21:24 | 31.63396 | 74.31125 | 33217 ft | 528 kts | 144° |
| 2026-04-25 21:24 | 31.60506 | 74.33764 | 33638 ft | 524 kts | 144° |
| 2026-04-25 21:25 | 31.57670 | 74.36352 | 33954 ft | 524 kts | 144° |
| 2026-04-25 21:25 | 31.54795 | 74.38972 | 34164 ft | 524 kts | 144° |
| 2026-04-25 21:25 | 31.51916 | 74.41595 | 34424 ft | 524 kts | 144° |
| 2026-04-25 21:25 | 31.49002 | 74.44246 | 34691 ft | 523 kts | 144° |
| 2026-04-25 21:26 | 31.46174 | 74.46818 | 34952 ft | 521 kts | 145° |
| 2026-04-25 21:26 | 31.43306 | 74.49423 | 35208 ft | 520 kts | 145° |
| 2026-04-25 21:26 | 31.40445 | 74.52013 | 35448 ft | 519 kts | 144° |
| 2026-04-25 21:26 | 31.37668 | 74.54716 | 35696 ft | 519 kts | 139° |
| 2026-04-25 21:27 | 31.35193 | 74.57798 | 35952 ft | 520 kts | 129° |
| 2026-04-25 21:27 | 31.33145 | 74.61288 | 36166 ft | 521 kts | 120° |
| 2026-04-25 21:27 | 31.31582 | 74.65097 | 36374 ft | 520 kts | 110° |
| 2026-04-25 21:27 | 31.30523 | 74.69136 | 36561 ft | 520 kts | 102° |
| 2026-04-25 21:28 | 31.29774 | 74.73273 | 36786 ft | 519 kts | 100° |
| 2026-04-25 21:28 | 31.29067 | 74.77412 | 36849 ft | 521 kts | 101° |
| 2026-04-25 21:28 | 31.27389 | 74.85703 | 36882 ft | 526 kts | 104° |
| 2026-04-25 21:29 | 31.25417 | 74.93926 | 36879 ft | 523 kts | 106° |
| 2026-04-25 21:29 | 31.23384 | 75.02024 | 36881 ft | 523 kts | 106° |
| 2026-04-25 21:30 | 31.21335 | 75.10196 | 36883 ft | 524 kts | 106° |
| 2026-04-25 21:30 | 31.19639 | 75.16990 | 36874 ft | 523 kts | 106° |
| 2026-04-25 21:31 | 31.17268 | 75.26490 | 36877 ft | 520 kts | 106° |
| 2026-04-25 21:31 | 31.15234 | 75.34608 | 36880 ft | 521 kts | 106° |
| 2026-04-25 21:32 | 31.13185 | 75.42717 | 36892 ft | 521 kts | 107° |
| 2026-04-25 21:32 | 31.10775 | 75.50662 | 36878 ft | 524 kts | 111° |
| 2026-04-25 21:33 | 31.08102 | 75.58630 | 36877 ft | 524 kts | 111° |
| 2026-04-25 21:33 | 31.05451 | 75.66537 | 36879 ft | 524 kts | 111° |
| 2026-04-25 21:34 | 31.02827 | 75.74459 | 36877 ft | 524 kts | 111° |
| 2026-04-25 21:34 | 31.00208 | 75.82385 | 36871 ft | 524 kts | 111° |
| 2026-04-25 21:35 | 30.97608 | 75.90234 | 36876 ft | 522 kts | 111° |
| 2026-04-25 21:35 | 30.94987 | 75.98122 | 36880 ft | 522 kts | 111° |
| 2026-04-25 21:36 | 30.92362 | 76.06000 | 36880 ft | 522 kts | 111° |
| 2026-04-25 21:36 | 30.89731 | 76.13877 | 36877 ft | 522 kts | 111° |
| 2026-04-25 21:37 | 30.87522 | 76.20479 | 36878 ft | 522 kts | 111° |
| 2026-04-25 21:37 | 30.84448 | 76.29641 | 36877 ft | 522 kts | 111° |
| 2026-04-25 21:38 | 30.81793 | 76.37500 | 36876 ft | 522 kts | 111° |
| 2026-04-25 21:38 | 30.79126 | 76.45344 | 36870 ft | 521 kts | 111° |
| 2026-04-25 21:39 | 30.76471 | 76.53177 | 36873 ft | 520 kts | 111° |
| 2026-04-25 21:39 | 30.73813 | 76.61027 | 36874 ft | 522 kts | 111° |
| 2026-04-25 21:40 | 30.71147 | 76.68882 | 36872 ft | 522 kts | 111° |
| 2026-04-25 21:40 | 30.68256 | 76.76557 | 36870 ft | 521 kts | 120° |
| 2026-04-25 21:41 | 30.64129 | 76.83472 | 36873 ft | 521 kts | 129° |
| 2026-04-25 21:41 | 30.59636 | 76.90068 | 36883 ft | 520 kts | 129° |
| 2026-04-25 21:42 | 30.55211 | 76.96713 | 36899 ft | 520 kts | 128° |
| 2026-04-25 21:42 | 30.50855 | 77.03419 | 36887 ft | 520 kts | 128° |
| 2026-04-25 21:43 | 30.46542 | 77.10093 | 36896 ft | 520 kts | 128° |
| 2026-04-25 21:43 | 30.42170 | 77.16773 | 36896 ft | 519 kts | 130° |
| 2026-04-25 21:44 | 30.36917 | 77.22429 | 36897 ft | 515 kts | 148° |
| 2026-04-25 21:44 | 30.30596 | 77.26219 | 36900 ft | 510 kts | 160° |
| 2026-04-25 21:45 | 30.27323 | 77.27794 | 36901 ft | 510 kts | 160° |
| 2026-04-25 21:45 | 30.20868 | 77.31126 | 36891 ft | 511 kts | 157° |
| 2026-04-25 21:46 | 30.14493 | 77.34771 | 36893 ft | 512 kts | 155° |
| 2026-04-25 21:46 | 30.08143 | 77.38525 | 36888 ft | 512 kts | 155° |
| 2026-04-25 21:47 | 30.01812 | 77.42263 | 36886 ft | 511 kts | 155° |
| 2026-04-25 21:47 | 29.95560 | 77.46173 | 36885 ft | 513 kts | 149° |
| 2026-04-25 21:48 | 29.89823 | 77.51097 | 36885 ft | 515 kts | 143° |
| 2026-04-25 21:48 | 29.84273 | 77.56321 | 36887 ft | 515 kts | 143° |
| 2026-04-25 21:49 | 29.78687 | 77.61491 | 36880 ft | 515 kts | 143° |
| 2026-04-25 21:49 | 29.73059 | 77.66598 | 36888 ft | 515 kts | 143° |
| 2026-04-25 21:50 | 29.67452 | 77.71654 | 36882 ft | 515 kts | 143° |
| 2026-04-25 21:50 | 29.61815 | 77.76733 | 36882 ft | 515 kts | 143° |
| 2026-04-25 21:51 | 29.56173 | 77.81814 | 36879 ft | 515 kts | 144° |
| 2026-04-25 21:51 | 29.50535 | 77.86885 | 36879 ft | 515 kts | 143° |
| 2026-04-25 21:52 | 29.44894 | 77.91951 | 36880 ft | 515 kts | 143° |
| 2026-04-25 21:52 | 29.39258 | 77.97004 | 36872 ft | 514 kts | 143° |
| 2026-04-25 21:53 | 29.33638 | 78.02037 | 36871 ft | 512 kts | 143° |
| 2026-04-25 21:53 | 29.28005 | 78.07061 | 36863 ft | 512 kts | 143° |
| 2026-04-25 21:54 | 29.22434 | 78.12016 | 36868 ft | 509 kts | 143° |
| 2026-04-25 21:54 | 29.16846 | 78.16992 | 36869 ft | 509 kts | 143° |
| 2026-04-25 21:55 | 29.11249 | 78.21974 | 36866 ft | 509 kts | 143° |
| 2026-04-25 21:55 | 29.05656 | 78.26948 | 36866 ft | 509 kts | 143° |
| 2026-04-25 21:56 | 29.00061 | 78.31914 | 36865 ft | 508 kts | 143° |
| 2026-04-25 21:56 | 28.94546 | 78.36805 | 36870 ft | 504 kts | 143° |
| 2026-04-25 21:57 | 28.88984 | 78.41727 | 36868 ft | 504 kts | 143° |
| 2026-04-25 21:57 | 28.83436 | 78.46632 | 36866 ft | 504 kts | 143° |
| 2026-04-25 21:58 | 28.78825 | 78.50702 | 36867 ft | 504 kts | 143° |
| 2026-04-25 21:58 | 28.73276 | 78.55596 | 36861 ft | 503 kts | 143° |
| 2026-04-25 21:59 | 28.66848 | 78.61256 | 36863 ft | 502 kts | 143° |
| 2026-04-25 21:59 | 28.62211 | 78.65321 | 36862 ft | 502 kts | 143° |
| 2026-04-25 22:00 | 28.53933 | 78.72566 | 36873 ft | 503 kts | 143° |
| 2026-04-25 22:00 | 28.48384 | 78.77427 | 36865 ft | 503 kts | 143° |
| 2026-04-25 22:01 | 28.42871 | 78.82319 | 36867 ft | 503 kts | 140° |
| 2026-04-25 22:01 | 28.38617 | 78.86838 | 36868 ft | 504 kts | 135° |
| 2026-04-25 22:02 | 28.32921 | 78.93523 | 36866 ft | 504 kts | 134° |
| 2026-04-25 22:02 | 28.28042 | 78.99236 | 36868 ft | 504 kts | 135° |
| 2026-04-25 22:03 | 28.23129 | 79.04905 | 36864 ft | 504 kts | 135° |
| 2026-04-25 22:03 | 28.18238 | 79.10516 | 36853 ft | 502 kts | 135° |
| 2026-04-25 22:04 | 28.13327 | 79.16141 | 36854 ft | 502 kts | 135° |
| 2026-04-25 22:04 | 28.08412 | 79.21766 | 36857 ft | 502 kts | 135° |
| 2026-04-25 22:05 | 28.03492 | 79.27390 | 36852 ft | 502 kts | 135° |
| 2026-04-25 22:05 | 27.98572 | 79.33006 | 36851 ft | 502 kts | 135° |
| 2026-04-25 22:06 | 27.93652 | 79.38615 | 36853 ft | 502 kts | 135° |
| 2026-04-25 22:06 | 27.88727 | 79.44222 | 36853 ft | 502 kts | 135° |
| 2026-04-25 22:07 | 27.84635 | 79.48873 | 36848 ft | 501 kts | 135° |
| 2026-04-25 22:07 | 27.78909 | 79.55347 | 36848 ft | 501 kts | 135° |
| 2026-04-25 22:08 | 27.73981 | 79.60921 | 36848 ft | 501 kts | 135° |
| 2026-04-25 22:08 | 27.69059 | 79.66491 | 36851 ft | 501 kts | 135° |
| 2026-04-25 22:09 | 27.64173 | 79.72112 | 36850 ft | 502 kts | 133° |
| 2026-04-25 22:09 | 27.59606 | 79.78096 | 36852 ft | 503 kts | 130° |
| 2026-04-25 22:10 | 27.55175 | 79.84185 | 36856 ft | 502 kts | 130° |
| 2026-04-25 22:10 | 27.50728 | 79.90257 | 36859 ft | 502 kts | 130° |
| 2026-04-25 22:11 | 27.46260 | 79.96300 | 36854 ft | 502 kts | 130° |
| 2026-04-25 22:11 | 27.41783 | 80.02330 | 36859 ft | 502 kts | 130° |
| 2026-04-25 22:12 | 27.37339 | 80.08309 | 36864 ft | 502 kts | 130° |
| 2026-04-25 22:12 | 27.33577 | 80.13365 | 36864 ft | 502 kts | 130° |
| 2026-04-25 22:13 | 27.28364 | 80.20363 | 36865 ft | 502 kts | 131° |
| 2026-04-25 22:13 | 27.23871 | 80.26385 | 36864 ft | 502 kts | 131° |
| 2026-04-25 22:14 | 27.19381 | 80.32394 | 36871 ft | 502 kts | 131° |
| 2026-04-25 22:14 | 27.14883 | 80.38406 | 36868 ft | 502 kts | 131° |
| 2026-04-25 22:15 | 27.10378 | 80.44412 | 36869 ft | 503 kts | 131° |
| 2026-04-25 22:16 | 27.03591 | 80.53419 | 36869 ft | 503 kts | 131° |
| 2026-04-25 22:16 | 26.99073 | 80.59421 | 36867 ft | 504 kts | 131° |
| 2026-04-25 22:17 | 26.94543 | 80.65439 | 36874 ft | 504 kts | 131° |
| 2026-04-25 22:17 | 26.90050 | 80.71401 | 36872 ft | 504 kts | 131° |
| 2026-04-25 22:18 | 26.85516 | 80.77408 | 36870 ft | 505 kts | 131° |
| 2026-04-25 22:18 | 26.81133 | 80.83571 | 36873 ft | 508 kts | 125° |
| 2026-04-25 22:19 | 26.78047 | 80.90669 | 36868 ft | 509 kts | 107° |
| 2026-04-25 22:19 | 26.76969 | 80.98486 | 36873 ft | 510 kts | 89° |
| 2026-04-25 22:20 | 26.77603 | 81.06259 | 36666 ft | 512 kts | 80° |
| 2026-04-25 22:20 | 26.78139 | 81.10035 | 36776 ft | 511 kts | 80° |
| 2026-04-25 22:20 | 26.78698 | 81.13962 | 36775 ft | 512 kts | 80° |
| 2026-04-25 22:21 | 26.79708 | 81.21833 | 36764 ft | 510 kts | 82° |
| 2026-04-25 22:21 | 26.80591 | 81.29551 | 36787 ft | 510 kts | 82° |
| 2026-04-25 22:22 | 26.81463 | 81.37454 | 36770 ft | 511 kts | 82° |
| 2026-04-25 22:22 | 26.82334 | 81.45362 | 36782 ft | 511 kts | 82° |
| 2026-04-25 22:23 | 26.83199 | 81.53209 | 36776 ft | 511 kts | 82° |
| 2026-04-25 22:23 | 26.84054 | 81.60981 | 37835 ft | 516 kts | 83° |
| 2026-04-25 22:23 | 26.84490 | 81.64978 | 36660 ft | 514 kts | 82° |
| 2026-04-25 22:24 | 26.84922 | 81.68942 | 36721 ft | 513 kts | 82° |
| 2026-04-25 22:24 | 26.85785 | 81.76883 | 36753 ft | 514 kts | 83° |
| 2026-04-25 22:25 | 26.86643 | 81.84821 | 36758 ft | 513 kts | 83° |
| 2026-04-25 22:25 | 26.87488 | 81.92763 | 36760 ft | 513 kts | 83° |
| 2026-04-25 22:26 | 26.88318 | 82.00707 | 36762 ft | 513 kts | 83° |
| 2026-04-25 22:26 | 26.89154 | 82.08645 | 36764 ft | 513 kts | 83° |
| 2026-04-25 22:27 | 26.89994 | 82.16586 | 36769 ft | 513 kts | 83° |
| 2026-04-25 22:27 | 26.90830 | 82.24529 | 36769 ft | 513 kts | 83° |
| 2026-04-25 22:28 | 26.91662 | 82.32480 | 36768 ft | 513 kts | 83° |
| 2026-04-25 22:28 | 26.92489 | 82.40425 | 36779 ft | 513 kts | 83° |
| 2026-04-25 22:29 | 26.93311 | 82.48375 | 36773 ft | 514 kts | 83° |
| 2026-04-25 22:29 | 26.94125 | 82.56294 | 36777 ft | 514 kts | 83° |
| 2026-04-25 22:30 | 26.95345 | 82.68237 | 36779 ft | 514 kts | 83° |
| 2026-04-25 22:30 | 26.96023 | 82.74917 | 36776 ft | 514 kts | 83° |
| 2026-04-25 22:31 | 26.96951 | 82.84175 | 36777 ft | 515 kts | 83° |
| 2026-04-25 22:31 | 26.97732 | 82.92167 | 36783 ft | 515 kts | 83° |
| 2026-04-25 22:32 | 26.98518 | 83.00150 | 36783 ft | 515 kts | 83° |
| 2026-04-25 22:32 | 26.99304 | 83.08089 | 36782 ft | 515 kts | 83° |
| 2026-04-25 22:33 | 27.00091 | 83.16071 | 36789 ft | 515 kts | 84° |
| 2026-04-25 22:33 | 27.00875 | 83.24068 | 36787 ft | 516 kts | 84° |
| 2026-04-25 22:34 | 27.01653 | 83.32064 | 36788 ft | 515 kts | 84° |
| 2026-04-25 22:34 | 27.02423 | 83.40014 | 36790 ft | 511 kts | 84° |
| 2026-04-25 22:35 | 27.03185 | 83.47943 | 36793 ft | 512 kts | 84° |
| 2026-04-25 22:35 | 27.03945 | 83.55890 | 36792 ft | 512 kts | 84° |
| 2026-04-25 22:36 | 27.04702 | 83.63855 | 36818 ft | 513 kts | 84° |
| 2026-04-25 22:36 | 27.05455 | 83.71819 | 36810 ft | 513 kts | 84° |
| 2026-04-25 22:37 | 27.06185 | 83.79735 | 36824 ft | 513 kts | 84° |
| 2026-04-25 22:37 | 27.06910 | 83.87704 | 36825 ft | 513 kts | 84° |
| 2026-04-25 22:38 | 27.07644 | 83.95675 | 36838 ft | 514 kts | 84° |
| 2026-04-25 22:38 | 27.08380 | 84.03664 | 36850 ft | 515 kts | 84° |
| 2026-04-25 22:39 | 27.09114 | 84.11662 | 36847 ft | 515 kts | 84° |
| 2026-04-25 22:39 | 27.09842 | 84.19660 | 36849 ft | 515 kts | 84° |
| 2026-04-25 22:40 | 27.10564 | 84.27651 | 36856 ft | 515 kts | 84° |
| 2026-04-25 22:40 | 27.11283 | 84.35645 | 36859 ft | 515 kts | 85° |
| 2026-04-25 22:41 | 27.11997 | 84.43652 | 36878 ft | 515 kts | 85° |
| 2026-04-25 22:41 | 27.12706 | 84.51651 | 36915 ft | 516 kts | 85° |
| 2026-04-25 22:42 | 27.13060 | 84.55658 | 37050 ft | 516 kts | 85° |
| 2026-04-25 22:42 | 27.13409 | 84.59625 | 37184 ft | 517 kts | 85° |
| 2026-04-25 22:42 | 27.13761 | 84.63642 | 37312 ft | 517 kts | 85° |
| 2026-04-25 22:42 | 27.14098 | 84.67669 | 37455 ft | 518 kts | 85° |
| 2026-04-25 22:43 | 27.14413 | 84.71693 | 37589 ft | 518 kts | 85° |
| 2026-04-25 22:43 | 27.14722 | 84.75741 | 37721 ft | 518 kts | 85° |
| 2026-04-25 22:43 | 27.15029 | 84.79777 | 37860 ft | 519 kts | 85° |
| 2026-04-25 22:43 | 27.15354 | 84.83816 | 38004 ft | 519 kts | 84° |
| 2026-04-25 22:44 | 27.16458 | 84.90424 | 38236 ft | 519 kts | 72° |
| 2026-04-25 22:44 | 27.17746 | 84.94210 | 38359 ft | 518 kts | 63° |
| 2026-04-25 22:44 | 27.20115 | 84.98673 | 39481 ft | 515 kts | 51° |
| 2026-04-25 22:45 | 27.22432 | 85.01768 | 39186 ft | 522 kts | 45° |
| 2026-04-25 22:45 | 27.25149 | 85.04482 | 38097 ft | 519 kts | 37° |
| 2026-04-25 22:45 | 27.28059 | 85.06810 | 38518 ft | 509 kts | 32° |
| 2026-04-25 22:45 | 27.31039 | 85.08919 | 38799 ft | 504 kts | 30° |
| 2026-04-25 22:46 | 27.37051 | 85.13023 | 38910 ft | 506 kts | 30° |
| 2026-04-25 22:46 | 27.42031 | 85.16523 | 38957 ft | 509 kts | 31° |
| 2026-04-25 22:47 | 27.47752 | 85.20656 | 38951 ft | 511 kts | 31° |
| 2026-04-25 22:47 | 27.53670 | 85.25112 | 38972 ft | 512 kts | 36° |
| 2026-04-25 22:48 | 27.58824 | 85.30633 | 38983 ft | 512 kts | 52° |
| 2026-04-25 22:48 | 27.62384 | 85.37551 | 39021 ft | 511 kts | 70° |
| 2026-04-25 22:49 | 27.64098 | 85.45228 | 39019 ft | 508 kts | 86° |
| 2026-04-25 22:49 | 27.63990 | 85.53140 | 39016 ft | 502 kts | 101° |
| 2026-04-25 22:50 | 27.62618 | 85.60836 | 39006 ft | 500 kts | 106° |
| 2026-04-25 22:50 | 27.61023 | 85.68466 | 39002 ft | 500 kts | 106° |
| 2026-04-25 22:51 | 27.59498 | 85.76124 | 39000 ft | 500 kts | 105° |
| 2026-04-25 22:51 | 27.58027 | 85.83785 | 39000 ft | 500 kts | 105° |
| 2026-04-25 22:52 | 27.56564 | 85.91451 | 38998 ft | 500 kts | 105° |
| 2026-04-25 22:52 | 27.55093 | 85.99119 | 39001 ft | 500 kts | 105° |
| 2026-04-25 22:53 | 27.53628 | 86.06722 | 38966 ft | 500 kts | 105° |
| 2026-04-25 22:53 | 27.52145 | 86.14382 | 38965 ft | 500 kts | 105° |
| 2026-04-25 22:54 | 27.50661 | 86.22031 | 38986 ft | 502 kts | 105° |
| 2026-04-25 22:54 | 27.49165 | 86.29733 | 38992 ft | 504 kts | 105° |
| 2026-04-25 22:55 | 27.47682 | 86.37455 | 38994 ft | 503 kts | 105° |
| 2026-04-25 22:55 | 27.46215 | 86.45153 | 39004 ft | 504 kts | 105° |
| 2026-04-25 22:56 | 27.44768 | 86.52735 | 39019 ft | 504 kts | 105° |
| 2026-04-25 22:56 | 27.43297 | 86.60423 | 38961 ft | 502 kts | 106° |
| 2026-04-25 22:57 | 27.41821 | 86.68105 | 38986 ft | 501 kts | 106° |
| 2026-04-25 22:57 | 27.40338 | 86.75792 | 38984 ft | 501 kts | 106° |
| 2026-04-25 22:58 | 27.38865 | 86.83406 | 38987 ft | 501 kts | 106° |
| 2026-04-25 22:58 | 27.37380 | 86.91063 | 38987 ft | 501 kts | 106° |
| 2026-04-25 22:59 | 27.36022 | 86.98756 | 38975 ft | 503 kts | 101° |
| 2026-04-25 22:59 | 27.36042 | 87.06621 | 38966 ft | 507 kts | 84° |
| 2026-04-25 23:00 | 27.38124 | 87.14247 | 38955 ft | 515 kts | 66° |
| 2026-04-25 23:00 | 27.42039 | 87.21021 | 38971 ft | 520 kts | 50° |
| 2026-04-25 23:01 | 27.47464 | 87.26407 | 38995 ft | 520 kts | 32° |
| 2026-04-25 23:01 | 27.53873 | 87.30049 | 38985 ft | 520 kts | 20° |
| 2026-04-25 23:02 | 27.60617 | 87.32965 | 39007 ft | 519 kts | 19° |
| 2026-04-25 23:02 | 27.67349 | 87.35926 | 39019 ft | 519 kts | 20° |
| 2026-04-25 23:03 | 27.74045 | 87.39013 | 39066 ft | 520 kts | 20° |
| 2026-04-25 23:03 | 27.80708 | 87.42144 | 39038 ft | 515 kts | 22° |
| 2026-04-25 23:04 | 27.85894 | 87.45454 | 39070 ft | 518 kts | 36° |
| 2026-04-25 23:04 | 27.89468 | 87.49049 | 39066 ft | 519 kts | 47° |
| 2026-04-25 23:04 | 27.91886 | 87.52157 | 39070 ft | 520 kts | 50° |
| 2026-04-25 23:05 | 27.96525 | 87.58379 | 39077 ft | 520 kts | 49° |
| 2026-04-25 23:05 | 28.01388 | 87.64463 | 39071 ft | 521 kts | 46° |
| 2026-04-25 23:06 | 28.06378 | 87.70434 | 39096 ft | 522 kts | 45° |
| 2026-04-25 23:06 | 28.11384 | 87.76385 | 39081 ft | 521 kts | 46° |
| 2026-04-25 23:07 | 28.16375 | 87.82342 | 39081 ft | 521 kts | 46° |
| 2026-04-25 23:07 | 28.21353 | 87.88306 | 39083 ft | 520 kts | 46° |
| 2026-04-25 23:08 | 28.26296 | 87.94241 | 39084 ft | 521 kts | 46° |
| 2026-04-25 23:08 | 28.31270 | 88.00222 | 39083 ft | 520 kts | 46° |
| 2026-04-25 23:09 | 28.36229 | 88.06191 | 39082 ft | 520 kts | 46° |
| 2026-04-25 23:09 | 28.41190 | 88.12192 | 39078 ft | 523 kts | 46° |
| 2026-04-25 23:10 | 28.46176 | 88.18231 | 39087 ft | 525 kts | 46° |
| 2026-04-25 23:10 | 28.51180 | 88.24289 | 39086 ft | 524 kts | 46° |
| 2026-04-25 23:11 | 28.56169 | 88.30331 | 39080 ft | 524 kts | 46° |
| 2026-04-25 23:11 | 28.61164 | 88.36389 | 39088 ft | 524 kts | 46° |
| 2026-04-25 23:12 | 28.66123 | 88.42415 | 39089 ft | 523 kts | 46° |
| 2026-04-25 23:12 | 28.71083 | 88.48445 | 39071 ft | 521 kts | 45° |
| 2026-04-25 23:13 | 28.76038 | 88.54481 | 39067 ft | 520 kts | 46° |
| 2026-04-25 23:13 | 28.80981 | 88.60517 | 39050 ft | 521 kts | 45° |
| 2026-04-25 23:14 | 28.85921 | 88.66557 | 39048 ft | 520 kts | 46° |
| 2026-04-25 23:14 | 28.90855 | 88.72599 | 39021 ft | 519 kts | 46° |
| 2026-04-25 23:15 | 28.95780 | 88.78645 | 39056 ft | 519 kts | 46° |
| 2026-04-25 23:15 | 29.00678 | 88.84687 | 39037 ft | 518 kts | 46° |
| 2026-04-25 23:16 | 29.05578 | 88.90721 | 39012 ft | 517 kts | 45° |
| 2026-04-25 23:16 | 29.10445 | 88.96713 | 39039 ft | 517 kts | 45° |
| 2026-04-25 23:17 | 29.15325 | 89.02729 | 39018 ft | 517 kts | 45° |
| 2026-04-25 23:17 | 29.20213 | 89.08767 | 39036 ft | 517 kts | 45° |
| 2026-04-25 23:18 | 29.25093 | 89.14804 | 39043 ft | 516 kts | 45° |
| 2026-04-25 23:18 | 29.29859 | 89.20940 | 39032 ft | 515 kts | 50° |
| 2026-04-25 23:19 | 29.33529 | 89.27959 | 39048 ft | 516 kts | 68° |
| 2026-04-25 23:19 | 29.35272 | 89.35919 | 39048 ft | 516 kts | 86° |
| 2026-04-25 23:20 | 29.35325 | 89.44115 | 39068 ft | 514 kts | 94° |
| 2026-04-25 23:20 | 29.34929 | 89.52297 | 39067 ft | 514 kts | 95° |
| 2026-04-25 23:21 | 29.34595 | 89.60444 | 39083 ft | 514 kts | 94° |
| 2026-04-25 23:21 | 29.34337 | 89.68635 | 39086 ft | 514 kts | 94° |
| 2026-04-25 23:22 | 29.34097 | 89.76824 | 39087 ft | 514 kts | 94° |
| 2026-04-25 23:23 | 29.33723 | 89.89101 | 39080 ft | 513 kts | 94° |
| 2026-04-25 23:23 | 29.33463 | 89.97291 | 39086 ft | 514 kts | 94° |
| 2026-04-25 23:24 | 29.33199 | 90.05473 | 39088 ft | 516 kts | 94° |
| 2026-04-25 23:24 | 29.32927 | 90.13723 | 39078 ft | 518 kts | 94° |
| 2026-04-25 23:25 | 29.32646 | 90.21896 | 39076 ft | 517 kts | 94° |
| 2026-04-25 23:25 | 29.32347 | 90.30116 | 39061 ft | 515 kts | 94° |
| 2026-04-25 23:26 | 29.32053 | 90.38351 | 39040 ft | 517 kts | 94° |
| 2026-04-25 23:26 | 29.31761 | 90.46605 | 39035 ft | 520 kts | 94° |
| 2026-04-25 23:27 | 29.31463 | 90.54898 | 39027 ft | 520 kts | 94° |
| 2026-04-25 23:27 | 29.31162 | 90.63170 | 39017 ft | 520 kts | 94° |
| 2026-04-25 23:28 | 29.30853 | 90.71476 | 38746 ft | 524 kts | 94° |
| 2026-04-25 23:28 | 29.30698 | 90.75591 | 38370 ft | 524 kts | 94° |
| 2026-04-25 23:28 | 29.30538 | 90.79797 | 38119 ft | 517 kts | 94° |
| 2026-04-25 23:28 | 29.30387 | 90.83783 | 37989 ft | 498 kts | 94° |
| 2026-04-25 23:29 | 29.30240 | 90.87661 | 37848 ft | 479 kts | 94° |
| 2026-04-25 23:29 | 29.30096 | 90.91401 | 37705 ft | 460 kts | 94° |
| 2026-04-25 23:29 | 29.29956 | 90.94997 | 37556 ft | 443 kts | 94° |
| 2026-04-25 23:29 | 29.29810 | 90.98497 | 37262 ft | 437 kts | 94° |
| 2026-04-25 23:30 | 29.29749 | 91.01977 | 36640 ft | 437 kts | 92° |
| 2026-04-25 23:30 | 29.29575 | 91.05445 | 35949 ft | 434 kts | 97° |
| 2026-04-25 23:30 | 29.29236 | 91.08873 | 35288 ft | 432 kts | 98° |
| 2026-04-25 23:30 | 29.28835 | 91.12269 | 34639 ft | 429 kts | 99° |
| 2026-04-25 23:31 | 29.28407 | 91.15635 | 33990 ft | 426 kts | 99° |
| 2026-04-25 23:31 | 29.27960 | 91.18987 | 33286 ft | 423 kts | 99° |
| 2026-04-25 23:31 | 29.27507 | 91.22297 | 32649 ft | 418 kts | 99° |
| 2026-04-25 23:31 | 29.27055 | 91.25557 | 31998 ft | 414 kts | 99° |
| 2026-04-25 23:32 | 29.26599 | 91.28805 | 31332 ft | 411 kts | 99° |
| 2026-04-25 23:32 | 29.26298 | 91.30930 | 30910 ft | 408 kts | 99° |
| 2026-04-25 23:32 | 29.25842 | 91.34123 | 30352 ft | 402 kts | 99° |
| 2026-04-25 23:32 | 29.25392 | 91.37248 | 29865 ft | 394 kts | 99° |
| 2026-04-25 23:33 | 29.24944 | 91.40322 | 29025 ft | 394 kts | 99° |
| 2026-04-25 23:33 | 29.24332 | 91.44440 | 27950 ft | 394 kts | 99° |
| 2026-04-25 23:33 | 29.23863 | 91.47506 | 27397 ft | 388 kts | 99° |
| 2026-04-25 23:33 | 29.23544 | 91.49546 | 27032 ft | 383 kts | 99° |
| 2026-04-25 23:34 | 29.23070 | 91.52524 | 26503 ft | 377 kts | 99° |
| 2026-04-25 23:34 | 29.22446 | 91.56392 | 25847 ft | 369 kts | 99° |
| 2026-04-25 23:34 | 29.22131 | 91.58325 | 25528 ft | 365 kts | 99° |
| 2026-04-25 23:34 | 29.21673 | 91.61122 | 25078 ft | 359 kts | 99° |
| 2026-04-25 23:35 | 29.21220 | 91.63910 | 24230 ft | 357 kts | 97° |
| 2026-04-25 23:35 | 29.20967 | 91.66888 | 21963 ft | 394 kts | 89° |
| 2026-04-25 23:35 | 29.21413 | 91.70024 | 20697 ft | 397 kts | 68° |
| 2026-04-25 23:35 | 29.22754 | 91.72798 | 20419 ft | 402 kts | 49° |
| 2026-04-25 23:36 | 29.24787 | 91.74966 | 20424 ft | 400 kts | 32° |
| 2026-04-25 23:36 | 29.27285 | 91.75965 | 21188 ft | 365 kts | 357° |
| 2026-04-25 23:36 | 29.29561 | 91.75097 | 22100 ft | 342 kts | 319° |
| 2026-04-25 23:36 | 29.30894 | 91.72845 | 22036 ft | 353 kts | 294° |
| 2026-04-25 23:37 | 29.31599 | 91.70047 | 21427 ft | 378 kts | 277° |
| 2026-04-25 23:37 | 29.31543 | 91.66977 | 21120 ft | 388 kts | 264° |
| 2026-04-25 23:37 | 29.31184 | 91.63992 | 21103 ft | 367 kts | 263° |
| 2026-04-25 23:37 | 29.30882 | 91.61211 | 21090 ft | 344 kts | 265° |
| 2026-04-25 23:38 | 29.30687 | 91.58519 | 21109 ft | 336 kts | 268° |
| 2026-04-25 23:38 | 29.30577 | 91.55849 | 21102 ft | 334 kts | 269° |
| 2026-04-25 23:38 | 29.30522 | 91.53184 | 21106 ft | 334 kts | 270° |
| 2026-04-25 23:38 | 29.30501 | 91.50519 | 21056 ft | 336 kts | 271° |
| 2026-04-25 23:39 | 29.30499 | 91.47845 | 20733 ft | 334 kts | 271° |
| 2026-04-25 23:39 | 29.30507 | 91.45192 | 20433 ft | 331 kts | 271° |
| 2026-04-25 23:39 | 29.30521 | 91.42559 | 20049 ft | 330 kts | 271° |
| 2026-04-25 23:39 | 29.30537 | 91.39942 | 19570 ft | 325 kts | 271° |
| 2026-04-25 23:40 | 29.30561 | 91.37365 | 19052 ft | 323 kts | 272° |
| 2026-04-25 23:40 | 29.30615 | 91.34804 | 18682 ft | 321 kts | 272° |
| 2026-04-25 23:40 | 29.30668 | 91.32259 | 18359 ft | 319 kts | 271° |
| 2026-04-25 23:40 | 29.30697 | 91.29724 | 17974 ft | 317 kts | 270° |
| 2026-04-25 23:41 | 29.30674 | 91.27240 | 17652 ft | 299 kts | 269° |
| 2026-04-25 23:41 | 29.30635 | 91.25012 | 17550 ft | 266 kts | 269° |
| 2026-04-25 23:41 | 29.30597 | 91.22929 | 17402 ft | 254 kts | 269° |
| 2026-04-25 23:41 | 29.30559 | 91.21012 | 16791 ft | 230 kts | 269° |
| 2026-04-25 23:42 | 29.30543 | 91.19234 | 15996 ft | 217 kts | 270° |
| 2026-04-25 23:42 | 29.30534 | 91.17532 | 14957 ft | 218 kts | 268° |
| 2026-04-25 23:42 | 29.30502 | 91.15887 | 14395 ft | 197 kts | 268° |
| 2026-04-25 23:42 | 29.30473 | 91.14307 | 14097 ft | 195 kts | 267° |
| 2026-04-25 23:43 | 29.30438 | 91.12768 | 14002 ft | 193 kts | 267° |
| 2026-04-25 23:43 | 29.30400 | 91.11229 | 13977 ft | 193 kts | 266° |
| 2026-04-25 23:43 | 29.30329 | 91.09685 | 13911 ft | 195 kts | 265° |
| 2026-04-25 23:43 | 29.30246 | 91.08141 | 13886 ft | 194 kts | 264° |
| 2026-04-25 23:44 | 29.30137 | 91.06599 | 13862 ft | 194 kts | 264° |
| 2026-04-25 23:44 | 29.30050 | 91.05053 | 13793 ft | 195 kts | 267° |
| 2026-04-25 23:44 | 29.30029 | 91.03461 | 13567 ft | 195 kts | 268° |
| 2026-04-25 23:44 | 29.30050 | 91.01928 | 13334 ft | 196 kts | 269° |
| 2026-04-25 23:45 | 29.30020 | 91.00387 | 13010 ft | 194 kts | 266° |
| 2026-04-25 23:45 | 29.29956 | 90.98860 | 12621 ft | 192 kts | 266° |
| 2026-04-25 23:45 | 29.29910 | 90.97341 | 12348 ft | 191 kts | 267° |
| 2026-04-25 23:45 | 29.29884 | 90.95823 | 12093 ft | 192 kts | 268° |
| 2026-04-25 23:46 | 29.29855 | 90.94308 | 11756 ft | 188 kts | 268° |
| 2026-04-25 23:46 | 29.29829 | 90.92816 | 11577 ft | 182 kts | 269° |
| 2026-04-25 23:46 | 29.29808 | 90.91579 | 11563 ft | 131 kts | 269° |
| 2026-04-25 23:46 | 29.29798 | 90.90730 | 11563 ft | 68 kts | 269° |
| 2026-04-25 23:47 | 29.29742 | 90.90405 | 11560 ft | 30 kts | 245° |
| 2026-04-25 23:47 | 29.29672 | 90.90253 | 11572 ft | 15 kts | 236° |
| 2026-04-25 23:47 | 29.29634 | 90.90159 | 11563 ft | 11 kts | 251° |
| 2026-04-25 23:47 | 29.29625 | 90.90081 | 11566 ft | 9 kts | 266° |
| 2026-04-25 23:48 | 29.29623 | 90.90023 | 11565 ft | 6 kts | 268° |
| 2026-04-25 23:48 | 29.29623 | 90.89982 | 11567 ft | 6 kts | 270° |
| 2026-04-25 23:48 | 29.29623 | 90.89931 | 11568 ft | 6 kts | 270° |
| 2026-04-25 23:48 | 29.29622 | 90.89877 | 11568 ft | 10 kts | 270° |
| 2026-04-25 23:49 | 29.29621 | 90.89789 | 11567 ft | 12 kts | 268° |
| 2026-04-25 23:49 | 29.29618 | 90.89677 | 11568 ft | 14 kts | 268° |
| 2026-04-25 23:49 | 29.29616 | 90.89575 | 11581 ft | 12 kts | 269° |
| 2026-04-25 23:49 | 29.29620 | 90.89494 | 11567 ft | 9 kts | 273° |
| 2026-04-25 23:50 | 29.29619 | 90.89433 | 11568 ft | 6 kts | 268° |
| 2026-04-25 23:50 | 29.29617 | 90.89391 | 11576 ft | 4 kts | 268° |
| 2026-04-25 23:50 | 29.29617 | 90.89366 | 11580 ft | 2 kts | 268° |
| 2026-04-25 23:50 | 29.29616 | 90.89355 | 11580 ft | 1 kts | 268° |
| 2026-04-25 23:51 | 29.29616 | 90.89346 | 11580 ft | 6 kts | 268° |
| 2026-04-25 23:51 | 29.29605 | 90.89234 | 11575 ft | 9 kts | 250° |
| 2026-04-25 23:51 | 29.29584 | 90.89213 | 11563 ft | 6 kts | 212° |
| 2026-04-25 23:51 | 29.29539 | 90.89183 | 11572 ft | 6 kts | 221° |
| 2026-04-25 23:52 | 29.29522 | 90.89148 | 11563 ft | 4 kts | 241° |
| 2026-04-25 23:52 | 29.29515 | 90.89122 | 11566 ft | 5 kts | 262° |
| 2026-04-25 23:52 | 29.29509 | 90.89062 | 11569 ft | 10 kts | 264° |
| 2026-04-25 23:52 | 29.29493 | 90.88986 | 11570 ft | 6 kts | 231° |
| 2026-04-25 23:53 | 29.29459 | 90.88982 | 11565 ft | 7 kts | 180° |
| 2026-04-25 23:53 | 29.29412 | 90.88981 | 11573 ft | 0 kts | 181° |